Kalenakliyat 2 — TCBA7 — position and weather

sailwx.info

Track history (hours):
 
Tides and Currents Weather Stations Pressure Air Temp Water Temp Dewpoint Dewpoint Depression Visibility Wind Speed Wind Dir Waves Ship Positions

Kalenakliyat 2

Last reported at 2017-Aug-13 18:54 UTC. Time now 2017-Aug-20 09:54 UTC.
Position N 42°03' E 033°47'.

Length 72 m; draft 5.1 m.

Type: Cargo ship. MMSI: 271002023.

Date/timePositionNaut miles runAvg speedWind from/ knotsBaromVisibWave heightAir tempDewpointWater temp
2017-Aug-13 18:54N 42°03' E 033°47'4 9.5
2017-Aug-13 18:29N 42°03' E 033°53'  
2017-Aug-07 09:47N 40°59' E 029°00'1 3.7
2017-Aug-07 09:30N 40°58' E 029°00'5 7.1
2017-Aug-07 08:48N 40°55' E 029°05'3 8.0
2017-Aug-07 08:29N 40°54' E 029°08'2 3.9
2017-Aug-07 07:55N 40°53' E 029°11'0 0.0
2017-Aug-07 07:21N 40°53' E 029°11'0 0.0
2017-Aug-07 06:55N 40°53' E 029°11'0 0.0
2017-Aug-07 06:19N 40°53' E 029°11'0 0.0
2017-Aug-07 05:49N 40°53' E 029°11'0 0.0
2017-Aug-07 05:25N 40°53' E 029°11'0 0.0
2017-Aug-07 04:27N 40°53' E 029°11'0 0.0
2017-Aug-07 03:37N 40°53' E 029°11'0 0.0
2017-Aug-07 03:25N 40°53' E 029°11'0 0.0
2017-Aug-07 02:49N 40°53' E 029°11'0 0.0
2017-Aug-07 02:19N 40°53' E 029°11'0 0.0
2017-Aug-07 01:55N 40°53' E 029°11'0 0.0
2017-Aug-07 01:25N 40°53' E 029°11'0 0.0
2017-Aug-07 00:07N 40°53' E 029°11'0 0.0
2017-Aug-06 23:55N 40°53' E 029°11'0 0.0
2017-Aug-06 23:25N 40°53' E 029°11'0 0.0
2017-Aug-06 22:55N 40°53' E 029°11'0 0.0
2017-Aug-06 22:22N 40°53' E 029°11'0 0.0
2017-Aug-06 21:55N 40°53' E 029°11'0 0.0
2017-Aug-06 21:19N 40°53' E 029°11'0 0.0
2017-Aug-06 20:55N 40°53' E 029°11'0 0.3
2017-Aug-06 20:31N 40°53' E 029°11'3 6.7
2017-Aug-06 19:59N 40°50' E 029°08'  
Track history (hours):
 
Tides and Currents Weather Stations Pressure Air Temp Water Temp Dewpoint Dewpoint Depression Visibility Wind Speed Wind Dir Waves Ship Positions

Kalenakliyat 2

Last reported at 2017-Aug-13 18:54 UTC. Time now 2017-Aug-20 09:54 UTC.
Position N 42°03' E 033°47'.

Length 72 m; draft 5.1 m.

Type: Cargo ship. MMSI: 271002023.

Date/timePositionNaut miles runAvg speedWind from/ knotsBaromVisibWave heightAir tempDewpointWater temp
2017-Aug-13 18:54N 42°03' E 033°47'4 9.5
2017-Aug-13 18:29N 42°03' E 033°53'  
2017-Aug-07 09:47N 40°59' E 029°00'1 3.7
2017-Aug-07 09:30N 40°58' E 029°00'5 7.1
2017-Aug-07 08:48N 40°55' E 029°05'3 8.0
2017-Aug-07 08:29N 40°54' E 029°08'2 3.9
2017-Aug-07 07:55N 40°53' E 029°11'0 0.0
2017-Aug-07 07:21N 40°53' E 029°11'0 0.0
2017-Aug-07 06:55N 40°53' E 029°11'0 0.0
2017-Aug-07 06:19N 40°53' E 029°11'0 0.0
2017-Aug-07 05:49N 40°53' E 029°11'0 0.0
2017-Aug-07 05:25N 40°53' E 029°11'0 0.0
2017-Aug-07 04:27N 40°53' E 029°11'0 0.0
2017-Aug-07 03:37N 40°53' E 029°11'0 0.0
2017-Aug-07 03:25N 40°53' E 029°11'0 0.0
2017-Aug-07 02:49N 40°53' E 029°11'0 0.0
2017-Aug-07 02:19N 40°53' E 029°11'0 0.0
2017-Aug-07 01:55N 40°53' E 029°11'0 0.0
2017-Aug-07 01:25N 40°53' E 029°11'0 0.0
2017-Aug-07 00:07N 40°53' E 029°11'0 0.0
2017-Aug-06 23:55N 40°53' E 029°11'0 0.0
2017-Aug-06 23:25N 40°53' E 029°11'0 0.0
2017-Aug-06 22:55N 40°53' E 029°11'0 0.0
2017-Aug-06 22:22N 40°53' E 029°11'0 0.0
2017-Aug-06 21:55N 40°53' E 029°11'0 0.0
2017-Aug-06 21:19N 40°53' E 029°11'0 0.0
2017-Aug-06 20:55N 40°53' E 029°11'0 0.3
2017-Aug-06 20:31N 40°53' E 029°11'3 6.7
2017-Aug-06 19:59N 40°50' E 029°08'  

Dump ship's entire track history